Time;durP1;ratioP1;P1;durP2;ratioP2;P2;SDS_P1;SDS_P2;PMS_P1;PMS_P2;Temp;Humidity;BMP_temperature;BMP_pressure;BME280_temperature;BME280_humidity;BME280_pressure;Samples;Min_cycle;Max_cycle;Signal;HPM_P1;HPM_P2
2023/03/12 00:02:15;;;;;;;0.90;0.90;;;;;;;-0.61;93.64;99998.44;4999079;28;20463;-49
2023/03/12 00:04:41;;;;;;;0.30;0.27;;;;;;;-0.66;93.92;99998.38;4999185;28;20454;-49
2023/03/12 00:07:08;;;;;;;1.03;0.93;;;;;;;-0.61;93.06;99985.38;5005669;28;21025;-49
2023/03/12 00:09:36;;;;;;;1.30;0.40;;;;;;;-0.51;92.90;99991.59;5005401;28;20453;-49
2023/03/12 00:12:03;;;;;;;0.43;0.40;;;;;;;-0.42;91.50;100002.97;4999299;28;20449;-49
2023/03/12 00:14:30;;;;;;;0.30;0.20;;;;;;;-0.58;92.58;100003.69;4996367;28;20454;-49
2023/03/12 00:16:57;;;;;;;0.53;0.53;;;;;;;-0.65;92.72;100010.56;5006144;28;20456;-49
2023/03/12 00:19:24;;;;;;;2.13;1.30;;;;;;;-0.58;92.46;100005.41;5005097;28;20452;-49
2023/03/12 00:21:50;;;;;;;1.03;0.73;;;;;;;-0.55;92.68;100008.94;4998751;28;20545;-49
2023/03/12 00:24:16;;;;;;;0.37;0.37;;;;;;;-0.57;93.06;99997.59;4999899;28;20456;-49
2023/03/12 00:26:43;;;;;;;0.50;0.50;;;;;;;-0.58;93.05;99989.75;4997916;28;20488;-49
2023/03/12 00:29:09;;;;;;;0.47;0.47;;;;;;;-0.56;92.90;99996.72;5000043;28;20460;-50
2023/03/12 00:31:36;;;;;;;0.90;0.90;;;;;;;-0.62;92.71;99992.34;5003936;28;20472;-49
2023/03/12 00:34:02;;;;;;;6.23;1.13;;;;;;;-0.68;93.81;99991.41;4999604;28;20453;-49
2023/03/12 00:36:30;;;;;;;0.80;0.80;;;;;;;-0.61;93.56;99986.25;5005656;28;20816;-49
2023/03/12 00:38:57;;;;;;;1.37;1.37;;;;;;;-0.53;93.74;99988.97;4992811;28;20457;-49
2023/03/12 00:41:25;;;;;;;15.50;2.23;;;;;;;-0.44;93.07;99986.44;5005610;28;20474;-49
2023/03/12 00:43:51;;;;;;;0.73;0.73;;;;;;;-0.53;93.17;99994.19;4988323;28;20512;-49
2023/03/12 00:46:19;;;;;;;0.40;0.30;;;;;;;-0.63;94.05;99987.09;4990248;28;20453;-49
2023/03/12 00:48:45;;;;;;;5.70;2.20;;;;;;;-0.48;93.12;99995.09;4998173;28;20863;-49
2023/03/12 00:51:12;;;;;;;0.73;0.67;;;;;;;-0.41;92.78;99999.53;5001674;28;20569;-49
2023/03/12 00:53:39;;;;;;;0.60;0.60;;;;;;;-0.38;92.21;99989.13;4989029;28;20452;-49
2023/03/12 00:56:05;;;;;;;0.97;0.97;;;;;;;-0.55;92.97;99995.88;5003764;28;20460;-49
2023/03/12 00:58:32;;;;;;;1.17;0.50;;;;;;;-0.55;93.33;99998.47;5005433;28;20501;-49
2023/03/12 01:00:58;;;;;;;0.40;0.40;;;;;;;-0.45;93.27;99996.88;4998473;28;20999;-49
2023/03/12 01:03:25;;;;;;;88.93;1.40;;;;;;;-0.47;93.43;99995.97;4991417;28;20504;-49
2023/03/12 01:05:53;;;;;;;0.30;0.20;;;;;;;-0.59;94.30;100004.53;5002609;28;20458;-49
2023/03/12 01:08:21;;;;;;;2.50;2.30;;;;;;;-0.56;94.58;100008.91;5006670;28;20565;-49
2023/03/12 01:10:47;;;;;;;0.40;0.40;;;;;;;-0.55;94.33;100002.81;5001977;28;20485;-49
2023/03/12 01:13:14;;;;;;;1.53;0.80;;;;;;;-0.38;93.83;99989.13;4993749;28;20543;-49
2023/03/12 01:15:40;;;;;;;1.50;1.50;;;;;;;-0.34;94.02;99987.41;5001216;28;20453;-49
2023/03/12 01:18:07;;;;;;;0.30;0.30;;;;;;;-0.26;93.40;99997.94;4998412;28;20545;-49
2023/03/12 01:20:33;;;;;;;0.30;0.30;;;;;;;-0.27;94.12;99996.16;5003207;28;20480;-49
2023/03/12 01:23:00;;;;;;;0.40;0.40;;;;;;;-0.35;93.66;99983.94;5003673;28;20551;-50
2023/03/12 01:25:26;;;;;;;13.70;1.57;;;;;;;-0.26;94.28;99993.59;5003290;28;21027;-49
2023/03/12 01:27:53;;;;;;;0.60;0.60;;;;;;;-0.33;93.83;99987.44;4995739;28;21023;-49
2023/03/12 01:30:19;;;;;;;1.83;1.07;;;;;;;-0.26;93.55;99992.72;5002839;28;20473;-49
2023/03/12 01:32:46;;;;;;;1.07;1.07;;;;;;;-0.35;94.54;99983.94;5005458;28;20827;-49
2023/03/12 01:35:12;;;;;;;0.90;0.90;;;;;;;-0.27;94.16;99978.81;5001904;28;20539;-49
2023/03/12 01:37:39;;;;;;;0.30;0.27;;;;;;;-0.17;94.82;99977.13;4996314;28;20937;-49
2023/03/12 01:40:05;;;;;;;6.20;0.87;;;;;;;-0.06;94.54;99991.16;5001865;28;20535;-49
2023/03/12 01:42:32;;;;;;;0.33;0.30;;;;;;;-0.15;94.84;99986.72;5004677;28;20453;-49
2023/03/12 01:45:01;;;;;;;1.10;0.70;;;;;;;0.00;93.69;99991.25;4991343;28;20449;-49
2023/03/12 01:47:31;;;;;;;0.20;0.20;;;;;;;-0.01;94.12;99985.13;5004095;28;20486;-49
2023/03/12 01:49:59;;;;;;;2.43;1.30;;;;;;;-0.01;94.72;99987.72;5001760;28;20465;-49
2023/03/12 01:52:29;;;;;;;0.60;0.57;;;;;;;-0.08;94.15;99985.94;4991221;28;20483;-49
2023/03/12 01:55:05;;;;;;;0.60;0.57;;;;;;;-0.19;95.32;99981.47;4999235;28;20460;-49
2023/03/12 01:57:42;;;;;;;0.40;0.40;;;;;;;-0.18;95.29;99970.16;4997948;28;20453;-49
2023/03/12 02:00:19;;;;;;;0.30;0.30;;;;;;;-0.05;95.56;99962.44;4987008;28;20472;-49
2023/03/12 02:02:47;;;;;;;1.40;0.40;;;;;;;0.00;95.23;99957.28;5000536;28;20446;-50
2023/03/12 02:05:22;;;;;;;0.30;0.20;;;;;;;0.08;96.01;99960.81;5004354;28;20452;-49
2023/03/12 02:07:48;;;;;;;0.50;0.50;;;;;;;0.04;95.99;99960.78;4999737;28;20493;-49
2023/03/12 02:10:16;;;;;;;0.40;0.40;;;;;;;0.16;95.70;99947.81;4999484;28;20474;-49
2023/03/12 02:12:42;;;;;;;1.50;0.30;;;;;;;0.23;94.54;99952.22;4982847;28;20450;-49
2023/03/12 02:15:09;;;;;;;0.30;0.20;;;;;;;0.09;95.77;99953.84;4999972;28;20461;-49
2023/03/12 02:17:36;;;;;;;0.20;0.20;;;;;;;0.17;96.83;99947.84;4988220;28;20454;-49
2023/03/12 02:20:30;;;;;;;0.40;0.33;;;;;;;0.18;96.94;99946.97;4997000;28;20469;-49
2023/03/12 02:23:08;;;;;;;0.20;0.20;;;;;;;0.19;96.13;99943.50;4996637;28;20513;-50
2023/03/12 02:25:40;;;;;;;1.00;1.00;;;;;;;0.22;96.05;99942.63;5000398;28;20448;-49
2023/03/12 02:28:12;;;;;;;0.80;0.80;;;;;;;0.33;95.76;99942.72;5003376;28;20651;-49
2023/03/12 02:30:44;;;;;;;0.43;0.40;;;;;;;0.36;96.54;99946.22;5002392;28;20503;-50
2023/03/12 02:33:11;;;;;;;2.97;1.03;;;;;;;0.42;95.83;99938.44;4995862;28;20453;-49
2023/03/12 02:35:38;;;;;;;0.27;0.20;;;;;;;0.39;95.36;99930.53;4997746;28;20472;-49
2023/03/12 02:38:42;;;;;;;1.33;0.67;;;;;;;0.51;96.19;99929.75;5003464;28;20457;-49
2023/03/12 02:41:10;;;;;;;0.50;0.50;;;;;;;0.48;96.43;99934.97;5002050;28;20480;-49
2023/03/12 02:43:38;;;;;;;0.20;0.20;;;;;;;0.43;96.97;99926.25;4987237;28;20454;-49
2023/03/12 02:46:05;;;;;;;0.70;0.70;;;;;;;0.49;96.41;99924.53;4995641;28;20903;-49
2023/03/12 02:48:31;;;;;;;0.40;0.23;;;;;;;0.46;96.44;99934.97;4996446;28;21025;-49
2023/03/12 02:50:58;;;;;;;0.77;0.43;;;;;;;0.58;96.55;99934.16;4997131;28;20616;-49
2023/03/12 02:53:24;;;;;;;0.60;0.50;;;;;;;0.49;96.27;99932.38;4996417;28;20950;-49
2023/03/12 02:55:51;;;;;;;0.50;0.50;;;;;;;0.57;94.98;99919.34;4996611;28;20460;-49
2023/03/12 02:58:17;;;;;;;0.50;0.50;;;;;;;0.59;95.05;99925.47;4996496;28;20449;-50
2023/03/12 03:00:44;;;;;;;0.40;0.40;;;;;;;0.69;94.55;99934.25;5002091;28;20552;-49
2023/03/12 03:03:10;;;;;;;1.53;1.53;;;;;;;0.58;93.46;99937.66;4990491;28;20829;-49
2023/03/12 03:05:37;;;;;;;0.87;0.60;;;;;;;0.58;95.40;99937.66;5002752;28;20917;-50
2023/03/12 03:08:03;;;;;;;0.40;0.37;;;;;;;0.55;95.23;99939.38;4977301;28;20486;-49
2023/03/12 03:10:30;;;;;;;0.20;0.20;;;;;;;0.62;95.59;99940.28;5002804;28;20476;-49
2023/03/12 03:12:56;;;;;;;0.20;0.20;;;;;;;0.76;95.16;99934.25;5001656;28;20484;-49
2023/03/12 03:15:23;;;;;;;0.60;0.60;;;;;;;0.70;94.96;99931.63;5000073;28;20452;-49
2023/03/12 03:17:50;;;;;;;0.50;0.50;;;;;;;0.67;95.39;99934.19;4999665;28;20472;-49
2023/03/12 03:20:16;;;;;;;1.03;0.30;;;;;;;0.70;96.33;99935.97;4999629;28;20470;-49
2023/03/12 03:22:43;;;;;;;1.27;1.17;;;;;;;0.69;95.46;99942.09;4986436;28;20469;-49
2023/03/12 03:25:09;;;;;;;1.60;1.53;;;;;;;0.82;95.87;99943.88;5006093;28;20457;-49
2023/03/12 03:27:36;;;;;;;2.70;0.97;;;;;;;0.68;95.85;99935.06;5006079;28;20864;-49
2023/03/12 03:30:03;;;;;;;6.97;0.40;;;;;;;0.59;96.26;99921.09;4999361;28;20542;-49
2023/03/12 03:32:29;;;;;;;2.83;1.30;;;;;;;0.41;97.03;99925.31;4999614;28;20449;-49
2023/03/12 03:34:56;;;;;;;0.30;0.23;;;;;;;0.26;98.14;99924.34;5005616;28;20460;-49
2023/03/12 03:37:22;;;;;;;0.87;0.40;;;;;;;0.24;99.61;99917.38;5006138;28;20946;-49
2023/03/12 03:39:49;;;;;;;3.90;0.90;;;;;;;0.08;99.67;99910.31;5000672;28;20473;-49
2023/03/12 03:42:15;;;;;;;3.87;1.30;;;;;;;0.15;99.88;99909.50;4999105;28;20449;-49
2023/03/12 03:44:41;;;;;;;2.03;1.53;;;;;;;0.23;99.56;99913.03;4991649;28;20461;-49
2023/03/12 03:47:08;;;;;;;1.10;1.10;;;;;;;0.39;97.99;99925.31;5005902;28;20490;-49
2023/03/12 03:49:34;;;;;;;2.03;1.83;;;;;;;0.23;99.49;99916.50;5000829;28;20460;-49
2023/03/12 03:52:01;;;;;;;0.50;0.50;;;;;;;0.24;100.00;99897.34;4990131;28;21015;-49
2023/03/12 03:54:29;;;;;;;0.97;0.63;;;;;;;0.46;98.77;99890.53;5001277;28;20448;-49
2023/03/12 03:56:55;;;;;;;0.30;0.30;;;;;;;0.60;98.08;99919.34;4998240;28;20464;-49
2023/03/12 03:59:22;;;;;;;1.37;0.63;;;;;;;0.58;98.39;99913.25;5003460;28;20450;-49
2023/03/12 04:01:48;;;;;;;0.50;0.50;;;;;;;0.69;97.62;99913.31;5005847;28;20541;-49
2023/03/12 04:04:14;;;;;;;0.90;0.90;;;;;;;0.69;97.98;99914.19;4996260;28;21008;-49
2023/03/12 04:06:41;;;;;;;1.33;1.23;;;;;;;0.79;97.34;99910.72;5001870;28;20453;-49
2023/03/12 04:09:07;;;;;;;0.50;0.30;;;;;;;0.86;96.69;99912.53;5001939;28;20491;-49
2023/03/12 04:11:34;;;;;;;0.83;0.83;;;;;;;0.88;96.37;99905.53;4998704;28;20910;-50
2023/03/12 04:14:00;;;;;;;3.13;0.70;;;;;;;0.93;96.18;99908.16;5000810;28;20506;-49
2023/03/12 04:16:27;;;;;;;0.30;0.30;;;;;;;0.96;96.81;99900.34;5005760;28;20457;-49
2023/03/12 04:18:53;;;;;;;9.27;1.80;;;;;;;0.93;95.99;99897.69;4999736;28;20455;-49
2023/03/12 04:21:20;;;;;;;0.57;0.40;;;;;;;0.61;96.93;99894.97;5005368;28;20485;-50
2023/03/12 04:23:46;;;;;;;0.60;0.60;;;;;;;0.63;97.70;99889.72;4994707;28;20453;-49
2023/03/12 04:26:13;;;;;;;0.87;0.53;;;;;;;0.76;96.75;99896.75;5005415;28;20545;-49
2023/03/12 04:28:39;;;;;;;0.63;0.63;;;;;;;0.83;96.32;99888.97;5001734;28;20998;-49
2023/03/12 04:31:06;;;;;;;1.13;1.13;;;;;;;0.91;96.92;99895.97;4998590;28;20839;-49
2023/03/12 04:33:38;;;;;;;0.60;0.60;;;;;;;0.89;97.46;99893.34;5002141;28;20464;-49
2023/03/12 04:36:05;;;;;;;0.30;0.30;;;;;;;0.80;98.24;99888.06;5005496;28;20527;-49
2023/03/12 04:38:32;;;;;;;0.50;0.50;;;;;;;0.94;97.03;99875.91;4991043;28;20454;-49
2023/03/12 04:41:04;;;;;;;1.43;1.43;;;;;;;0.65;97.17;99878.41;4992469;28;20476;-49
2023/03/12 04:43:31;;;;;;;0.77;0.77;;;;;;;0.92;96.70;99869.78;5000442;28;20446;-49
2023/03/12 04:45:58;;;;;;;1.60;0.70;;;;;;;1.05;96.75;99876.81;4997107;28;20452;-49
2023/03/12 04:48:25;;;;;;;0.40;0.33;;;;;;;1.06;96.54;99872.47;5000019;28;20854;-49
2023/03/12 04:50:52;;;;;;;0.30;0.30;;;;;;;1.24;96.06;99869.91;4995596;28;20559;-49
2023/03/12 04:53:19;;;;;;;0.77;0.50;;;;;;;1.13;96.27;99871.63;4996842;28;20456;-48
2023/03/12 04:55:46;;;;;;;0.63;0.63;;;;;;;1.21;96.17;99875.09;4998574;28;20449;-48
2023/03/12 04:58:13;;;;;;;1.13;1.07;;;;;;;1.19;96.16;99869.88;4999497;28;20810;-48
2023/03/12 05:00:41;;;;;;;1.13;1.13;;;;;;;1.19;95.50;99864.63;5004171;28;20470;-49
2023/03/12 05:03:08;;;;;;;1.33;1.33;;;;;;;1.27;94.34;99869.03;5004405;28;20461;-49
2023/03/12 05:05:34;;;;;;;0.40;0.40;;;;;;;1.28;94.62;99874.25;4998272;28;20460;-48
2023/03/12 05:08:02;;;;;;;0.77;0.50;;;;;;;1.36;94.14;99877.75;4999163;28;20530;-48
2023/03/12 05:10:28;;;;;;;0.93;0.40;;;;;;;1.15;96.36;99867.25;4998349;28;20472;-48
2023/03/12 05:12:55;;;;;;;3.80;1.33;;;;;;;1.28;95.83;99870.78;4998663;28;20453;-48
2023/03/12 05:15:21;;;;;;;1.27;0.83;;;;;;;1.29;95.82;99881.25;5000160;28;20462;-49
2023/03/12 05:17:48;;;;;;;1.73;1.63;;;;;;;1.31;96.16;99881.25;4998046;28;20480;-48
2023/03/12 05:20:16;;;;;;;0.80;0.80;;;;;;;1.35;95.95;99885.63;4997187;28;20495;-49
2023/03/12 05:22:43;;;;;;;0.70;0.50;;;;;;;1.39;95.12;99885.63;4997836;28;20897;-49
2023/03/12 05:25:10;;;;;;;0.80;0.80;;;;;;;1.38;96.79;99880.41;5004474;28;20450;-48
2023/03/12 05:27:36;;;;;;;0.60;0.60;;;;;;;1.19;97.29;99876.84;5004754;28;20505;-48
2023/03/12 05:30:05;;;;;;;0.60;0.60;;;;;;;0.98;97.39;99875.06;4999004;28;20479;-48
2023/03/12 05:32:31;;;;;;;0.50;0.50;;;;;;;1.07;98.12;99867.22;4998369;28;20453;-49
2023/03/12 05:34:58;;;;;;;0.50;0.50;;;;;;;1.16;96.87;99872.50;4991973;28;20562;-49
2023/03/12 05:37:24;;;;;;;0.60;0.60;;;;;;;1.21;97.57;99874.25;5002925;28;20518;-53
2023/03/12 05:39:53;;;;;;;1.13;1.07;;;;;;;1.26;96.00;99872.53;4984173;28;20848;-49
2023/03/12 05:42:19;;;;;;;1.03;0.90;;;;;;;1.32;96.22;99870.78;5003465;28;20476;-49
2023/03/12 05:44:45;;;;;;;0.73;0.50;;;;;;;1.30;96.70;99869.91;4988561;28;20465;-49
2023/03/12 05:47:12;;;;;;;1.10;1.10;;;;;;;1.33;94.73;99858.56;5000128;28;20460;-49
2023/03/12 05:49:38;;;;;;;1.90;1.77;;;;;;;1.31;96.13;99858.56;4999417;28;20492;-49
2023/03/12 05:52:05;;;;;;;6.10;1.57;;;;;;;1.31;95.43;99855.06;4988271;28;20841;-49
2023/03/12 05:54:32;;;;;;;0.60;0.60;;;;;;;1.43;95.06;99850.72;4999685;28;20866;-49
2023/03/12 05:56:58;;;;;;;1.30;0.40;;;;;;;1.37;95.47;99855.97;4994610;28;20450;-49
2023/03/12 05:59:25;;;;;;;1.07;1.07;;;;;;;1.41;94.97;99852.47;5000004;28;20451;-49
2023/03/12 06:01:51;;;;;;;10.13;2.97;;;;;;;1.36;94.66;99850.69;4997692;28;20476;-49
2023/03/12 06:04:18;;;;;;;0.77;0.50;;;;;;;1.34;94.98;99849.84;5002411;28;20453;-49
2023/03/12 06:06:44;;;;;;;1.47;0.60;;;;;;;1.37;95.66;99852.44;5004359;28;20977;-49
2023/03/12 06:09:10;;;;;;;7.30;0.87;;;;;;;1.39;96.48;99848.97;5000340;28;20492;-49
2023/03/12 06:11:37;;;;;;;1.23;1.23;;;;;;;1.44;96.32;99848.97;4997451;28;20469;-49
2023/03/12 06:14:03;;;;;;;0.40;0.40;;;;;;;1.52;97.39;99847.25;4994496;28;20891;-49
2023/03/12 06:16:30;;;;;;;2.40;0.63;;;;;;;1.54;97.69;99847.25;5000436;28;20454;-49
2023/03/12 06:18:59;;;;;;;1.13;0.80;;;;;;;1.64;97.49;99843.75;4977182;28;20455;-49
2023/03/12 06:21:30;;;;;;;0.60;0.60;;;;;;;1.63;96.71;99842.88;4991617;28;20480;-48
2023/03/12 06:23:57;;;;;;;4.50;1.67;;;;;;;1.41;96.19;99842.00;4993412;28;20457;-48
2023/03/12 06:26:24;;;;;;;1.13;1.03;;;;;;;1.23;97.43;99855.03;4998132;28;20457;-48
2023/03/12 06:28:52;;;;;;;0.80;0.63;;;;;;;1.26;99.21;99859.44;5000073;28;20489;-48
2023/03/12 06:31:20;;;;;;;1.33;1.23;;;;;;;1.19;99.32;99861.16;4988939;28;20476;-48
2023/03/12 06:33:46;;;;;;;0.87;0.87;;;;;;;1.10;99.51;99854.16;4989716;28;20447;-48
2023/03/12 06:36:13;;;;;;;0.60;0.60;;;;;;;0.99;100.00;99852.38;4993954;28;20938;-49
2023/03/12 06:38:40;;;;;;;2.83;1.30;;;;;;;0.99;100.00;99857.63;4995612;28;20455;-48
2023/03/12 06:41:13;;;;;;;1.80;1.70;;;;;;;1.05;100.00;99862.88;5002252;28;20885;-48
2023/03/12 06:43:40;;;;;;;0.30;0.20;;;;;;;0.94;100.00;99860.22;4989084;28;20477;-48
2023/03/12 06:46:11;;;;;;;0.73;0.73;;;;;;;1.15;100.00;99862.91;4988957;28;20544;-48
2023/03/12 06:48:40;;;;;;;0.93;0.60;;;;;;;1.08;100.00;99868.09;4975910;28;20983;-48
2023/03/12 06:51:08;;;;;;;0.60;0.60;;;;;;;1.10;100.00;99858.53;4997170;28;20503;-49
2023/03/12 06:53:35;;;;;;;1.00;1.00;;;;;;;1.22;100.00;99855.03;4999365;28;20445;-49
2023/03/12 06:56:02;;;;;;;3.80;0.40;;;;;;;1.24;100.00;99845.47;4997790;28;20460;-48
2023/03/12 06:58:29;;;;;;;1.70;1.60;;;;;;;1.04;100.00;99842.78;4985587;28;20875;-48
2023/03/12 07:00:56;;;;;;;2.63;2.17;;;;;;;1.17;100.00;99848.06;5001891;28;20483;-48
2023/03/12 07:03:23;;;;;;;0.73;0.73;;;;;;;1.26;100.00;99846.34;5005228;28;20524;-49
2023/03/12 07:05:51;;;;;;;0.63;0.63;;;;;;;1.16;100.00;99842.81;4982112;28;20951;-48
2023/03/12 07:08:17;;;;;;;9.20;1.60;;;;;;;1.24;100.00;99853.34;5000782;28;20496;-48
2023/03/12 07:10:45;;;;;;;1.83;1.03;;;;;;;1.32;100.00;99873.41;4992234;28;20840;-48
2023/03/12 07:13:12;;;;;;;0.70;0.70;;;;;;;1.27;100.00;99872.53;4991985;28;20489;-48
2023/03/12 07:15:38;;;;;;;0.70;0.70;;;;;;;1.26;100.00;99876.00;4995386;28;20463;-48
2023/03/12 07:18:10;;;;;;;0.60;0.57;;;;;;;1.33;100.00;99880.38;5004981;28;20453;-49
2023/03/12 07:20:39;;;;;;;0.40;0.40;;;;;;;1.26;100.00;99878.63;5001076;28;20473;-48
2023/03/12 07:23:06;;;;;;;0.93;0.93;;;;;;;1.32;100.00;99875.13;4990986;28;20476;-48
2023/03/12 07:25:38;;;;;;;0.37;0.37;;;;;;;1.46;100.00;99865.56;4993648;28;20451;-48
2023/03/12 07:28:05;;;;;;;0.70;0.70;;;;;;;1.31;100.00;99858.56;5005922;28;20456;-49
2023/03/12 07:30:32;;;;;;;0.73;0.73;;;;;;;1.29;100.00;99862.94;4983902;28;20478;-48
2023/03/12 07:33:07;;;;;;;8.53;1.70;;;;;;;1.36;100.00;99853.31;4997878;28;20445;-49
2023/03/12 07:35:35;;;;;;;0.77;0.77;;;;;;;1.40;100.00;99853.34;4996014;28;20442;-49
2023/03/12 07:38:01;;;;;;;0.37;0.33;;;;;;;1.53;100.00;99851.63;5000592;28;20476;-48
2023/03/12 07:40:28;;;;;;;4.13;2.33;;;;;;;1.51;100.00;99857.69;5000450;28;20834;-48
2023/03/12 07:42:54;;;;;;;0.30;0.30;;;;;;;1.37;100.00;99853.34;4997679;28;20453;-49
2023/03/12 07:45:21;;;;;;;0.83;0.83;;;;;;;1.43;100.00;99855.97;4988320;28;20453;-49
2023/03/12 07:47:48;;;;;;;1.77;1.67;;;;;;;1.37;100.00;99868.16;5002724;28;20451;-49
2023/03/12 07:50:16;;;;;;;0.40;0.27;;;;;;;1.35;100.00;99883.88;5001404;28;20936;-48
2023/03/12 07:52:43;;;;;;;0.77;0.77;;;;;;;1.30;100.00;99882.13;4987243;28;20492;-49
2023/03/12 07:55:11;;;;;;;0.43;0.43;;;;;;;1.51;100.00;99871.69;5008483;28;20977;-48
2023/03/12 07:57:37;;;;;;;0.30;0.30;;;;;;;1.55;100.00;99872.56;5004936;28;20445;-49
2023/03/12 08:00:06;;;;;;;0.83;0.83;;;;;;;1.48;100.00;99875.16;5006057;28;20469;-49
2023/03/12 08:02:33;;;;;;;4.20;1.40;;;;;;;1.49;100.00;99868.19;5011595;28;20449;-49
2023/03/12 08:04:59;;;;;;;1.43;1.43;;;;;;;1.64;100.00;99865.56;5013196;28;20448;-49
2023/03/12 08:07:30;;;;;;;1.03;0.97;;;;;;;1.60;100.00;99868.19;5007877;28;20548;-48
2023/03/12 08:09:58;;;;;;;3.80;0.87;;;;;;;1.56;100.00;99869.94;5005360;28;20580;-49
2023/03/12 08:12:25;;;;;;;0.90;0.53;;;;;;;1.60;100.00;99879.53;5011912;28;20461;-49
2023/03/12 08:14:51;;;;;;;0.97;0.90;;;;;;;1.66;100.00;99876.06;5014370;28;20457;-48
2023/03/12 08:17:18;;;;;;;2.23;0.87;;;;;;;1.56;100.00;99877.81;5011728;28;20452;-50
2023/03/12 08:19:44;;;;;;;0.63;0.50;;;;;;;1.46;100.00;99878.66;5010002;28;20521;-49
2023/03/12 08:22:11;;;;;;;0.90;0.30;;;;;;;1.86;100.00;99876.06;5006683;28;20452;-49
2023/03/12 08:24:38;;;;;;;0.40;0.40;;;;;;;1.68;100.00;99884.81;5022508;28;20532;-49
2023/03/12 08:27:04;;;;;;;0.60;0.30;;;;;;;1.77;100.00;99876.94;5027580;28;20481;-49
2023/03/12 08:29:32;;;;;;;14.97;1.87;;;;;;;1.47;100.00;99873.41;5020538;28;20675;-50
2023/03/12 08:31:59;;;;;;;0.50;0.50;;;;;;;1.64;100.00;99875.16;5014056;28;20485;-49
2023/03/12 08:34:34;;;;;;;0.80;0.80;;;;;;;1.73;100.00;99876.06;5020469;28;20443;-50
2023/03/12 08:37:01;;;;;;;0.53;0.40;;;;;;;1.87;100.00;99869.94;5024135;28;20460;-50
2023/03/12 08:39:28;;;;;;;0.97;0.97;;;;;;;1.99;100.00;99867.31;5028453;28;20883;-50
2023/03/12 08:41:54;;;;;;;5.00;1.07;;;;;;;1.98;100.00;99869.06;5024714;28;20473;-50
2023/03/12 08:44:26;;;;;;;0.80;0.80;;;;;;;2.05;100.00;99881.28;5010697;28;20442;-50
2023/03/12 08:46:52;;;;;;;4.73;2.27;;;;;;;2.02;100.00;99883.03;5020849;28;20449;-50
2023/03/12 08:49:20;;;;;;;0.40;0.40;;;;;;;2.15;100.00;99883.91;5015495;28;20514;-50
2023/03/12 08:51:46;;;;;;;0.83;0.50;;;;;;;2.15;100.00;99876.03;5020851;28;20461;-50
2023/03/12 08:54:13;;;;;;;0.63;0.63;;;;;;;2.32;100.00;99884.75;5023714;28;20470;-50
2023/03/12 08:56:42;;;;;;;1.67;1.57;;;;;;;2.34;100.00;99888.25;5021564;28;20876;-50
2023/03/12 08:59:10;;;;;;;2.77;1.37;;;;;;;2.31;100.00;99872.50;5008996;28;20449;-50
2023/03/12 09:01:37;;;;;;;2.07;1.87;;;;;;;2.50;100.00;99876.84;5019665;28;20453;-50
2023/03/12 09:04:04;;;;;;;1.23;1.23;;;;;;;2.37;100.00;99859.41;5025215;28;20513;-50
2023/03/12 09:06:32;;;;;;;1.30;1.30;;;;;;;2.46;100.00;99859.34;5012690;28;20457;-49
2023/03/12 09:09:03;;;;;;;0.40;0.30;;;;;;;2.36;100.00;99855.91;5029173;28;20477;-50
2023/03/12 09:11:31;;;;;;;0.77;0.60;;;;;;;2.52;100.00;99864.59;5026928;28;20484;-50
2023/03/12 09:13:59;;;;;;;0.30;0.30;;;;;;;2.57;100.00;99862.81;5010486;28;20477;-50
2023/03/12 09:16:45;;;;;;;1.70;1.30;;;;;;;3.01;100.00;99851.25;5023877;28;20454;-50
2023/03/12 09:19:12;;;;;;;1.57;1.00;;;;;;;2.93;100.00;99853.06;5012819;28;20455;-50
2023/03/12 09:21:38;;;;;;;3.07;1.43;;;;;;;3.06;100.00;99857.38;5025802;28;20477;-50
2023/03/12 09:24:06;;;;;;;1.20;1.13;;;;;;;3.03;100.00;99865.28;5025811;28;20501;-50
2023/03/12 09:26:33;;;;;;;3.60;2.30;;;;;;;2.95;100.00;99869.69;5022415;28;20472;-50
2023/03/12 09:28:59;;;;;;;2.17;2.07;;;;;;;2.93;100.00;99876.69;5023880;28;20477;-50
2023/03/12 09:31:26;;;;;;;2.83;2.63;;;;;;;3.20;100.00;99873.94;5028250;28;20470;-50
2023/03/12 09:33:52;;;;;;;1.87;1.77;;;;;;;3.06;100.00;99873.13;5019390;28;20454;-50
2023/03/12 09:36:19;;;;;;;0.47;0.47;;;;;;;3.15;100.00;99864.31;5025347;28;20449;-49
2023/03/12 09:38:45;;;;;;;1.60;1.23;;;;;;;3.20;100.00;99870.44;5018294;28;20458;-50
2023/03/12 09:41:27;;;;;;;1.73;1.63;;;;;;;3.26;100.00;99875.63;5016749;28;20541;-50
2023/03/12 09:44:02;;;;;;;1.60;1.50;;;;;;;3.33;100.00;99874.72;5011327;28;20430;-51
2023/03/12 09:46:36;;;;;;;2.53;2.43;;;;;;;3.23;100.00;99881.78;5017013;28;20488;-50
2023/03/12 09:49:10;;;;;;;2.40;2.20;;;;;;;3.21;100.00;99877.44;5027090;28;20534;-51
2023/03/12 09:51:48;;;;;;;3.40;2.80;;;;;;;3.23;100.00;99888.78;5017293;28;20486;-50
2023/03/12 09:54:26;;;;;;;1.73;1.63;;;;;;;3.35;100.00;99870.34;5025499;28;20468;-51
2023/03/12 09:56:56;;;;;;;0.93;0.90;;;;;;;3.30;100.00;99882.63;5029340;28;20467;-51
2023/03/12 09:59:22;;;;;;;0.73;0.73;;;;;;;3.43;100.00;99878.19;5025682;28;20467;-51
2023/03/12 10:01:57;;;;;;;0.60;0.60;;;;;;;3.53;100.00;99875.47;5024984;28;20521;-50
2023/03/12 10:04:42;;;;;;;0.93;0.93;;;;;;;3.67;100.00;99885.00;5016212;28;20451;-50
2023/03/12 10:07:26;;;;;;;2.93;0.73;;;;;;;3.75;100.00;99886.69;5011988;28;20456;-49
2023/03/12 10:10:06;;;;;;;0.93;0.90;;;;;;;3.54;100.00;99885.09;5011194;28;20502;-48
2023/03/12 10:12:54;;;;;;;0.90;0.90;;;;;;;3.77;100.00;99882.31;5024983;28;20433;-48
2023/03/12 10:15:38;;;;;;;1.20;0.77;;;;;;;3.85;100.00;99884.88;5011494;28;20476;-48
2023/03/12 10:18:24;;;;;;;9.53;2.10;;;;;;;3.82;100.00;99879.63;5011265;28;20450;-51
2023/03/12 10:21:06;;;;;;;1.47;1.13;;;;;;;4.02;100.00;99875.09;5027396;28;20494;-50
2023/03/12 10:23:51;;;;;;;1.30;1.30;;;;;;;4.15;100.00;99876.72;4997679;28;20494;-49
2023/03/12 10:26:52;;;;;;;2.00;1.90;;;;;;;4.12;100.00;99871.50;5013314;28;20431;-50
2023/03/12 10:29:31;;;;;;;0.97;0.97;;;;;;;4.27;100.00;99859.97;5020486;28;20560;-48
2023/03/12 10:32:09;;;;;;;1.60;1.50;;;;;;;4.42;100.00;99854.53;5018194;28;20533;-49
2023/03/12 10:34:41;;;;;;;2.03;1.70;;;;;;;4.51;100.00;99842.16;5020981;28;20443;-48
2023/03/12 10:37:17;;;;;;;4.00;2.63;;;;;;;4.39;100.00;99835.28;5015763;28;20505;-48
2023/03/12 10:39:44;;;;;;;1.13;1.10;;;;;;;4.60;100.00;99842.03;5010225;28;20461;-49
2023/03/12 10:42:19;;;;;;;2.17;2.00;;;;;;;4.83;100.00;99845.28;5021023;28;20454;-49
2023/03/12 10:44:49;;;;;;;2.80;1.90;;;;;;;5.40;100.00;99841.88;5004847;28;20499;-48
2023/03/12 10:47:35;;;;;;;1.73;1.20;;;;;;;5.39;100.00;99845.41;5009180;28;20451;-49
2023/03/12 10:50:14;;;;;;;2.77;2.57;;;;;;;5.59;99.54;99848.59;5008359;28;20492;-48
2023/03/12 10:52:41;;;;;;;2.20;2.00;;;;;;;5.19;100.00;99835.13;5018464;28;20461;-49
2023/03/12 10:55:31;;;;;;;2.90;2.70;;;;;;;4.98;100.00;99833.69;5021354;28;20441;-51
2023/03/12 10:57:57;;;;;;;2.70;1.63;;;;;;;4.89;100.00;99839.94;5024544;28;20438;-50
2023/03/12 11:00:29;;;;;;;2.27;2.07;;;;;;;5.15;100.00;99844.84;5027460;28;20493;-49
2023/03/12 11:03:19;;;;;;;7.30;1.67;;;;;;;5.09;100.00;99842.31;5015694;28;20498;-50
2023/03/12 11:05:48;;;;;;;1.53;1.43;;;;;;;5.54;100.00;99840.75;5022658;28;20459;-49
2023/03/12 11:08:35;;;;;;;1.83;1.73;;;;;;;5.72;100.00;99841.34;5019936;28;20491;-48
2023/03/12 11:11:03;;;;;;;1.97;1.60;;;;;;;5.57;100.00;99839.84;5021845;28;20513;-49
2023/03/12 11:13:36;;;;;;;2.40;2.30;;;;;;;5.86;100.00;99834.09;5023971;28;20449;-49
2023/03/12 11:16:15;;;;;;;2.27;1.60;;;;;;;5.93;99.55;99827.88;5023273;28;20448;-49
2023/03/12 11:19:25;;;;;;;2.03;1.90;;;;;;;6.20;100.00;99834.41;5012355;28;20453;-49
2023/03/12 11:21:57;;;;;;;2.60;2.40;;;;;;;6.35;99.83;99820.94;5014779;28;20502;-49
2023/03/12 11:24:23;;;;;;;5.07;3.57;;;;;;;6.68;99.25;99819.38;4997163;28;20453;-49
2023/03/12 11:27:22;;;;;;;4.90;2.20;;;;;;;6.54;98.93;99811.75;5003691;28;20461;-49
2023/03/12 11:29:49;;;;;;;3.20;1.17;;;;;;;6.70;99.41;99808.78;5004911;28;20501;-49
2023/03/12 11:32:30;;;;;;;4.53;3.10;;;;;;;6.79;99.02;99806.84;5004677;28;20460;-50
2023/03/12 11:34:57;;;;;;;2.27;2.10;;;;;;;7.71;97.26;99799.44;4988544;28;20452;-50
2023/03/12 11:37:45;;;;;;;2.50;2.10;;;;;;;8.16;94.68;99807.97;4999812;28;20449;-50
2023/03/12 11:40:23;;;;;;;2.87;2.77;;;;;;;8.32;94.48;99804.00;5002413;28;20466;-50
2023/03/12 11:43:10;;;;;;;1.60;1.50;;;;;;;7.92;94.87;99809.47;5006417;28;20480;-49
2023/03/12 11:45:51;;;;;;;1.50;1.40;;;;;;;8.44;93.99;99799.31;4995520;28;20449;-50
2023/03/12 11:48:36;;;;;;;2.17;2.07;;;;;;;8.33;94.13;99794.28;5002133;28;20449;-50